Time;durP1;ratioP1;P1;durP2;ratioP2;P2;SDS_P1;SDS_P2;PMS_P1;PMS_P2;Temp;Humidity;BMP_temperature;BMP_pressure;BME280_temperature;BME280_humidity;BME280_pressure;Samples;Min_cycle;Max_cycle;Signal;HPM_P1;HPM_P2
2022/08/01 00:01:53;;;;;;;14.43;10.80;;;;;;;;;;5056551;28;20182;-70
2022/08/01 00:04:19;;;;;;;14.17;11.10;;;;;;;;;;5074314;28;20209;-69
2022/08/01 00:06:45;;;;;;;13.67;11.37;;;;;;;;;;5074186;28;20280;-70
2022/08/01 00:09:11;;;;;;;14.07;10.53;;;;;;;;;;5074224;28;20550;-70
2022/08/01 00:11:37;;;;;;;12.73;11.53;;;;;;;;;;5074811;28;20561;-70
2022/08/01 00:14:03;;;;;;;11.83;10.63;;;;;;;;;;5056274;28;20208;-70
2022/08/01 00:16:29;;;;;;;14.33;11.13;;;;;;;;;;5074336;28;20173;-70
2022/08/01 00:18:55;;;;;;;15.00;10.90;;;;;;;;;;5056255;28;20186;-70
2022/08/01 00:21:21;;;;;;;16.43;11.50;;;;;;;;;;5074427;28;20208;-69
2022/08/01 00:23:47;;;;;;;11.43;10.23;;;;;;;;;;5056007;28;20206;-69
2022/08/01 00:26:13;;;;;;;11.60;10.03;;;;;;;;;;5056052;28;20657;-69
2022/08/01 00:28:40;;;;;;;11.00;9.90;;;;;;;;;;5056066;28;20177;-70
2022/08/01 00:31:06;;;;;;;13.33;10.17;;;;;;;;;;5055989;28;20695;-69
2022/08/01 00:33:32;;;;;;;14.40;9.93;;;;;;;;;;5073780;28;20216;-69
2022/08/01 00:35:58;;;;;;;13.40;10.03;;;;;;;;;;5055649;28;20664;-71
2022/08/01 00:38:24;;;;;;;14.20;10.67;;;;;;;;;;5073719;28;20178;-70
2022/08/01 00:40:50;;;;;;;12.27;9.37;;;;;;;;;;5073949;28;20182;-70
2022/08/01 00:43:16;;;;;;;13.23;10.43;;;;;;;;;;5055629;28;20208;-70
2022/08/01 00:45:42;;;;;;;13.40;10.43;;;;;;;;;;5073342;28;20217;-70
2022/08/01 00:48:08;;;;;;;17.17;10.70;;;;;;;;;;5055501;28;20633;-70
2022/08/01 00:50:34;;;;;;;11.83;10.53;;;;;;;;;;5073118;28;20178;-70
2022/08/01 00:53:00;;;;;;;13.80;10.70;;;;;;;;;;5055666;28;20268;-70
2022/08/01 00:55:28;;;;;;;17.23;11.10;;;;;;;;;;5055249;28;20208;-69
2022/08/01 00:57:54;;;;;;;13.13;10.37;;;;;;;;;;5055324;28;20272;-69
2022/08/01 01:00:20;;;;;;;14.47;11.40;;;;;;;;;;5055356;28;20184;-70
2022/08/01 01:02:46;;;;;;;14.60;11.10;;;;;;;;;;5073342;28;20206;-70
2022/08/01 01:05:12;;;;;;;13.53;10.70;;;;;;;;;;5073277;28;20213;-69
2022/08/01 01:07:45;;;;;;;12.90;10.60;;;;;;;;;;5055476;28;20201;-70
2022/08/01 01:10:23;;;;;;;14.20;9.90;;;;;;;;;;5073811;28;20174;-69
2022/08/01 01:12:55;;;;;;;11.80;10.33;;;;;;;;;;5055390;28;20180;-70
2022/08/01 01:15:30;;;;;;;12.20;10.87;;;;;;;;;;5055350;28;20205;-69
2022/08/01 01:17:58;;;;;;;14.50;10.93;;;;;;;;;;5073315;28;20197;-69
2022/08/01 01:20:28;;;;;;;15.73;11.37;;;;;;;;;;5055185;28;20189;-70
2022/08/01 01:22:54;;;;;;;13.00;10.50;;;;;;;;;;5055155;28;20286;-70
2022/08/01 01:25:26;;;;;;;17.30;11.47;;;;;;;;;;5055150;28;20208;-69
2022/08/01 01:27:52;;;;;;;15.23;11.30;;;;;;;;;;5055130;28;20169;-70
2022/08/01 01:30:19;;;;;;;17.07;10.90;;;;;;;;;;5073488;28;20312;-70
2022/08/01 01:32:48;;;;;;;13.43;11.47;;;;;;;;;;5072988;28;20201;-69
2022/08/01 01:35:16;;;;;;;16.27;10.93;;;;;;;;;;5054982;28;20284;-69
2022/08/01 01:37:42;;;;;;;14.43;12.10;;;;;;;;;;5055100;28;20178;-69
2022/08/01 01:40:10;;;;;;;15.07;11.73;;;;;;;;;;5055056;28;20604;-69
2022/08/01 01:42:36;;;;;;;15.30;12.03;;;;;;;;;;5072981;28;20231;-70
2022/08/01 01:45:05;;;;;;;15.30;11.67;;;;;;;;;;5072705;28;20209;-70
2022/08/01 01:47:32;;;;;;;17.50;12.77;;;;;;;;;;5073151;28;20185;-69
2022/08/01 01:49:58;;;;;;;17.03;12.37;;;;;;;;;;5054918;28;20192;-70
2022/08/01 01:52:25;;;;;;;14.97;11.37;;;;;;;;;;5073078;28;20220;-70
2022/08/01 01:54:52;;;;;;;17.00;12.50;;;;;;;;;;5054833;28;20297;-69
2022/08/01 01:57:18;;;;;;;17.00;12.07;;;;;;;;;;5073120;28;20177;-69
2022/08/01 01:59:45;;;;;;;17.83;12.90;;;;;;;;;;5054888;28;20174;-69
2022/08/01 02:02:12;;;;;;;15.90;12.53;;;;;;;;;;5056219;28;20185;-70
2022/08/01 02:04:40;;;;;;;17.10;12.87;;;;;;;;;;5076842;28;20273;-70
2022/08/01 02:07:08;;;;;;;17.27;12.80;;;;;;;;;;5058802;28;20174;-69
2022/08/01 02:09:34;;;;;;;16.80;13.27;;;;;;;;;;5076713;28;20173;-69
2022/08/01 02:12:01;;;;;;;16.10;13.00;;;;;;;;;;5076909;28;20174;-70
2022/08/01 02:14:28;;;;;;;21.20;12.83;;;;;;;;;;5076649;28;20212;-69
2022/08/01 02:16:55;;;;;;;17.13;12.73;;;;;;;;;;5058578;28;20181;-69
2022/08/01 02:19:21;;;;;;;19.43;13.07;;;;;;;;;;5076386;28;20180;-69
2022/08/01 02:21:56;;;;;;;26.13;13.43;;;;;;;;;;5058770;28;20639;-69
2022/08/01 02:24:39;;;;;;;21.33;13.90;;;;;;;;;;5076146;28;20280;-69
2022/08/01 02:27:07;;;;;;;18.87;13.70;;;;;;;;;;5058309;28;20268;-70
2022/08/01 02:29:38;;;;;;;22.83;13.47;;;;;;;;;;5076201;28;20170;-69
2022/08/01 02:32:05;;;;;;;18.30;14.33;;;;;;;;;;5076314;28;20166;-69
2022/08/01 02:34:32;;;;;;;19.07;14.17;;;;;;;;;;5076104;28;20240;-69
2022/08/01 02:36:59;;;;;;;25.17;14.60;;;;;;;;;;5076335;28;20661;-70
2022/08/01 02:39:27;;;;;;;20.10;13.87;;;;;;;;;;5076312;28;20638;-70
2022/08/01 02:41:57;;;;;;;16.90;14.13;;;;;;;;;;5076016;28;20634;-69
2022/08/01 02:44:25;;;;;;;17.13;13.53;;;;;;;;;;5075876;28;20213;-69
2022/08/01 02:46:53;;;;;;;18.83;14.60;;;;;;;;;;5076275;28;20158;-70
2022/08/01 02:49:20;;;;;;;22.57;14.20;;;;;;;;;;5076095;28;20516;-70
2022/08/01 02:51:48;;;;;;;21.60;14.37;;;;;;;;;;5075861;28;20691;-70
2022/08/01 02:54:15;;;;;;;22.37;15.70;;;;;;;;;;5057857;28;20202;-69
2022/08/01 02:56:42;;;;;;;20.60;14.87;;;;;;;;;;5075743;28;20189;-69
2022/08/01 02:59:11;;;;;;;21.43;15.30;;;;;;;;;;5057743;28;20662;-69
2022/08/01 03:01:38;;;;;;;23.60;16.60;;;;;;;;;;5075689;28;20245;-69
2022/08/01 03:04:05;;;;;;;24.50;15.63;;;;;;;;;;5075547;28;20233;-69
2022/08/01 03:06:32;;;;;;;21.80;15.47;;;;;;;;;;5057773;28;20264;-69
2022/08/01 03:08:58;;;;;;;20.70;15.97;;;;;;;;;;5075407;28;20185;-69
2022/08/01 03:11:25;;;;;;;24.60;16.40;;;;;;;;;;5075483;28;20551;-69
2022/08/01 03:13:52;;;;;;;23.00;17.67;;;;;;;;;;5074590;28;20228;-69
2022/08/01 03:16:19;;;;;;;21.97;17.47;;;;;;;;;;5075424;28;20194;-69
2022/08/01 03:18:45;;;;;;;21.40;16.60;;;;;;;;;;5057389;28;20552;-69
2022/08/01 03:21:12;;;;;;;22.07;17.77;;;;;;;;;;5075350;28;20174;-69
2022/08/01 03:23:38;;;;;;;30.03;17.70;;;;;;;;;;5074906;28;20657;-69
2022/08/01 03:26:05;;;;;;;25.63;17.03;;;;;;;;;;5056870;28;20677;-69
2022/08/01 03:28:31;;;;;;;31.33;17.70;;;;;;;;;;5074918;28;20231;-69
2022/08/01 03:30:58;;;;;;;27.43;18.17;;;;;;;;;;5074931;28;20257;-69
2022/08/01 03:33:24;;;;;;;26.17;18.53;;;;;;;;;;5074926;28;20178;-69
2022/08/01 03:35:53;;;;;;;27.83;18.60;;;;;;;;;;5057009;28;20224;-69
2022/08/01 03:38:20;;;;;;;26.80;18.00;;;;;;;;;;5074877;28;20231;-69
2022/08/01 03:41:08;;;;;;;26.63;18.70;;;;;;;;;;5056910;28;20201;-69
2022/08/01 03:43:41;;;;;;;25.97;18.37;;;;;;;;;;5056712;28;20289;-69
2022/08/01 03:46:09;;;;;;;24.27;18.97;;;;;;;;;;5075004;28;20622;-69
2022/08/01 03:48:37;;;;;;;26.17;18.30;;;;;;;;;;5056790;28;20217;-70
2022/08/01 03:51:03;;;;;;;27.93;18.87;;;;;;;;;;5074961;28;20174;-69
2022/08/01 03:53:31;;;;;;;26.30;18.63;;;;;;;;;;5056675;28;20650;-69
2022/08/01 03:55:59;;;;;;;25.17;18.13;;;;;;;;;;5074518;28;20684;-69
2022/08/01 03:58:25;;;;;;;24.10;17.77;;;;;;;;;;5075538;28;20200;-70
2022/08/01 04:00:51;;;;;;;28.80;19.17;;;;;;;;;;5074816;28;20217;-70
2022/08/01 04:03:17;;;;;;;28.53;18.30;;;;;;;;;;5075053;28;20206;-70
2022/08/01 04:05:43;;;;;;;28.13;17.47;;;;;;;;;;5074752;28;20193;-69
2022/08/01 04:08:09;;;;;;;24.53;17.90;;;;;;;;;;5075016;28;20238;-70
2022/08/01 04:10:35;;;;;;;26.40;17.50;;;;;;;;;;5056393;28;20181;-70
2022/08/01 04:13:01;;;;;;;21.47;17.80;;;;;;;;;;5056448;28;20186;-69
2022/08/01 04:15:28;;;;;;;24.63;18.60;;;;;;;;;;5056241;28;20205;-69
2022/08/01 04:17:54;;;;;;;24.83;17.73;;;;;;;;;;5056181;28;20190;-70
2022/08/01 04:20:20;;;;;;;28.87;17.83;;;;;;;;;;5074018;28;20185;-69
2022/08/01 04:22:46;;;;;;;25.60;17.57;;;;;;;;;;5073792;28;20201;-69
2022/08/01 04:25:18;;;;;;;22.30;15.97;;;;;;;;;;5073287;28;20574;-69
2022/08/01 04:27:46;;;;;;;26.77;17.23;;;;;;;;;;5073786;28;20168;-69
2022/08/01 04:30:12;;;;;;;23.87;16.70;;;;;;;;;;5074079;28;20252;-69
2022/08/01 04:32:39;;;;;;;22.23;16.13;;;;;;;;;;5073713;28;20173;-69
2022/08/01 04:35:07;;;;;;;21.17;16.57;;;;;;;;;;5073527;28;20193;-69
2022/08/01 04:37:33;;;;;;;19.57;15.77;;;;;;;;;;5055816;28;20201;-69
2022/08/01 04:39:59;;;;;;;22.00;15.43;;;;;;;;;;5074109;28;20178;-69
2022/08/01 04:42:25;;;;;;;21.87;16.90;;;;;;;;;;5074101;28;20209;-69
2022/08/01 04:44:51;;;;;;;21.43;16.40;;;;;;;;;;5073561;28;20213;-69
2022/08/01 04:47:17;;;;;;;19.83;15.73;;;;;;;;;;5073784;28;20673;-70
2022/08/01 04:49:45;;;;;;;19.53;15.70;;;;;;;;;;5056896;28;20272;-69
2022/08/01 04:52:12;;;;;;;21.30;15.43;;;;;;;;;;5074047;28;20178;-69
2022/08/01 04:54:38;;;;;;;21.43;16.00;;;;;;;;;;5073258;28;20201;-69
2022/08/01 04:57:04;;;;;;;22.40;15.63;;;;;;;;;;5055432;28;20174;-69
2022/08/01 04:59:40;;;;;;;21.50;14.73;;;;;;;;;;5073737;28;20200;-69
2022/08/01 05:02:13;;;;;;;23.77;15.77;;;;;;;;;;5073468;28;20158;-69
2022/08/01 05:04:39;;;;;;;19.37;14.80;;;;;;;;;;5055192;28;20227;-69
2022/08/01 05:07:06;;;;;;;20.27;15.63;;;;;;;;;;5073443;28;20178;-69
2022/08/01 05:09:33;;;;;;;21.30;15.10;;;;;;;;;;5073294;28;20708;-69
2022/08/01 05:12:00;;;;;;;19.77;15.20;;;;;;;;;;5073093;28;20174;-69
2022/08/01 05:14:26;;;;;;;21.80;15.70;;;;;;;;;;5073363;28;20193;-69
2022/08/01 05:16:53;;;;;;;21.37;14.73;;;;;;;;;;5073117;28;20256;-69
2022/08/01 05:19:19;;;;;;;21.40;14.97;;;;;;;;;;5055166;28;20652;-69
2022/08/01 05:21:45;;;;;;;19.03;14.67;;;;;;;;;;5073305;28;20181;-69
2022/08/01 05:24:11;;;;;;;18.83;15.47;;;;;;;;;;5072957;28;20276;-69
2022/08/01 05:26:37;;;;;;;18.97;14.90;;;;;;;;;;5073022;28;20182;-69
2022/08/01 05:29:03;;;;;;;22.27;15.13;;;;;;;;;;5073008;28;20185;-69
2022/08/01 05:31:29;;;;;;;19.10;15.20;;;;;;;;;;5072945;28;20193;-69
2022/08/01 05:33:55;;;;;;;18.67;14.30;;;;;;;;;;5054830;28;20637;-69
2022/08/01 05:36:21;;;;;;;21.90;14.03;;;;;;;;;;5072636;28;20193;-69
2022/08/01 05:38:47;;;;;;;18.43;13.77;;;;;;;;;;5054922;28;20182;-69
2022/08/01 05:41:13;;;;;;;16.53;13.23;;;;;;;;;;5072851;28;20182;-69
2022/08/01 05:43:39;;;;;;;20.03;13.47;;;;;;;;;;5073019;28;20228;-69
2022/08/01 05:46:04;;;;;;;15.67;12.93;;;;;;;;;;5072775;28;20551;-70
2022/08/01 05:48:30;;;;;;;18.10;13.63;;;;;;;;;;5054907;28;20190;-69
2022/08/01 05:50:57;;;;;;;20.17;13.33;;;;;;;;;;5054904;28;20185;-69
2022/08/01 05:53:23;;;;;;;16.13;13.30;;;;;;;;;;5072667;28;20174;-69
2022/08/01 05:55:49;;;;;;;17.80;12.53;;;;;;;;;;5054675;28;20255;-69
2022/08/01 05:58:15;;;;;;;17.60;12.70;;;;;;;;;;5072726;28;20174;-69
2022/08/01 06:00:41;;;;;;;15.03;11.97;;;;;;;;;;5072875;28;20188;-69
2022/08/01 06:03:07;;;;;;;15.40;12.33;;;;;;;;;;5054690;28;20205;-69
2022/08/01 06:05:32;;;;;;;15.83;11.47;;;;;;;;;;5072754;28;20193;-69
2022/08/01 06:07:58;;;;;;;17.53;11.67;;;;;;;;;;5054708;28;20217;-69
2022/08/01 06:10:24;;;;;;;15.10;12.00;;;;;;;;;;5072629;28;20174;-69
2022/08/01 06:12:50;;;;;;;19.00;11.90;;;;;;;;;;5072616;28;20178;-69
2022/08/01 06:15:16;;;;;;;14.43;10.60;;;;;;;;;;5072458;28;20700;-69
2022/08/01 06:17:42;;;;;;;13.43;10.20;;;;;;;;;;5054704;28;20581;-69
2022/08/01 06:20:09;;;;;;;12.57;9.53;;;;;;;;;;5072742;28;20210;-69
2022/08/01 06:22:34;;;;;;;11.30;9.40;;;;;;;;;;5072417;28;20182;-69
2022/08/01 06:25:01;;;;;;;12.03;8.97;;;;;;;;;;5072488;28;20194;-70
2022/08/01 06:27:27;;;;;;;11.10;8.70;;;;;;;;;;5072804;28;20182;-70
2022/08/01 06:29:53;;;;;;;11.53;8.97;;;;;;;;;;5072670;28;20178;-69
2022/08/01 06:32:19;;;;;;;9.60;8.17;;;;;;;;;;5072569;28;20174;-69
2022/08/01 06:34:45;;;;;;;11.73;9.03;;;;;;;;;;5072542;28;20294;-70
2022/08/01 06:37:13;;;;;;;10.83;7.80;;;;;;;;;;5054488;28;20245;-69
2022/08/01 06:39:39;;;;;;;11.83;8.10;;;;;;;;;;5054523;28;20609;-69
2022/08/01 06:42:05;;;;;;;10.00;8.07;;;;;;;;;;5072480;28;20261;-69
2022/08/01 06:44:31;;;;;;;12.10;8.50;;;;;;;;;;5054151;28;20217;-69
2022/08/01 06:47:00;;;;;;;13.07;9.00;;;;;;;;;;5054503;28;20182;-69
2022/08/01 06:49:26;;;;;;;10.17;8.50;;;;;;;;;;5056021;28;20205;-69
2022/08/01 06:51:52;;;;;;;10.83;8.33;;;;;;;;;;5076338;28;20626;-70
2022/08/01 06:54:18;;;;;;;10.63;8.57;;;;;;;;;;5057990;28;20205;-69
2022/08/01 06:56:44;;;;;;;11.73;8.80;;;;;;;;;;5075771;28;20198;-70
2022/08/01 06:59:10;;;;;;;10.03;8.77;;;;;;;;;;5057771;28;20685;-69
2022/08/01 07:01:36;;;;;;;10.83;8.97;;;;;;;;;;5057704;28;20729;-70
2022/08/01 07:04:02;;;;;;;10.47;8.37;;;;;;;;;;5075551;28;20263;-69
2022/08/01 07:06:28;;;;;;;10.53;8.10;;;;;;;;;;5057767;28;20268;-71
2022/08/01 07:08:54;;;;;;;9.10;7.77;;;;;;;;;;5057768;28;20228;-70
2022/08/01 07:11:21;;;;;;;8.87;7.97;;;;;;;;;;5057757;28;20554;-70
2022/08/01 07:13:47;;;;;;;8.97;6.63;;;;;;;;;;5075900;28;20246;-70
2022/08/01 07:16:13;;;;;;;6.73;5.33;;;;;;;;;;5075401;28;20638;-70
2022/08/01 07:18:39;;;;;;;7.53;5.40;;;;;;;;;;5075790;28;20545;-69
2022/08/01 07:21:05;;;;;;;8.70;4.87;;;;;;;;;;5057514;28;20264;-68
2022/08/01 07:23:32;;;;;;;5.93;5.30;;;;;;;;;;5075473;28;20205;-69
2022/08/01 07:25:58;;;;;;;7.67;5.60;;;;;;;;;;5075122;28;20285;-69
2022/08/01 07:28:24;;;;;;;6.43;5.60;;;;;;;;;;5075079;28;20676;-69
2022/08/01 07:30:50;;;;;;;6.23;4.63;;;;;;;;;;5057209;28;20173;-69
2022/08/01 07:33:16;;;;;;;5.80;5.20;;;;;;;;;;5075074;28;20186;-69
2022/08/01 07:35:42;;;;;;;5.87;4.97;;;;;;;;;;5057149;28;20237;-69
2022/08/01 07:38:08;;;;;;;5.90;5.30;;;;;;;;;;5075269;28;20215;-69
2022/08/01 07:40:34;;;;;;;7.77;5.40;;;;;;;;;;5057066;28;20181;-69
2022/08/01 07:43:00;;;;;;;6.87;5.83;;;;;;;;;;5075304;28;20657;-69
2022/08/01 07:45:26;;;;;;;7.07;5.93;;;;;;;;;;5056576;28;20224;-68
2022/08/01 07:47:53;;;;;;;6.07;5.47;;;;;;;;;;5074641;28;20178;-68
2022/08/01 07:50:19;;;;;;;7.57;6.27;;;;;;;;;;5074927;28;20173;-68
2022/08/01 07:52:45;;;;;;;8.97;5.90;;;;;;;;;;5074445;28;20181;-68
2022/08/01 07:55:12;;;;;;;4.90;4.43;;;;;;;;;;5056380;28;20198;-68
2022/08/01 07:57:38;;;;;;;5.63;4.50;;;;;;;;;;5074483;28;20663;-68
2022/08/01 08:00:06;;;;;;;4.00;3.60;;;;;;;;;;5074220;28;20182;-67
2022/08/01 08:02:32;;;;;;;5.30;4.00;;;;;;;;;;5074421;28;20177;-68
2022/08/01 08:04:58;;;;;;;4.67;3.87;;;;;;;;;;5074236;28;20206;-69
2022/08/01 08:07:24;;;;;;;4.40;3.90;;;;;;;;;;5074141;28;20185;-68
2022/08/01 08:09:50;;;;;;;4.27;3.87;;;;;;;;;;5074380;28;20174;-69
2022/08/01 08:12:16;;;;;;;5.50;3.77;;;;;;;;;;5074224;28;20188;-69
2022/08/01 08:14:42;;;;;;;3.93;3.57;;;;;;;;;;5074111;28;20232;-69
2022/08/01 08:17:08;;;;;;;3.50;2.60;;;;;;;;;;5056217;28;20181;-69
2022/08/01 08:19:36;;;;;;;2.40;2.20;;;;;;;;;;5074053;28;20170;-69
2022/08/01 08:22:02;;;;;;;2.27;2.07;;;;;;;;;;5074272;28;20193;-69
2022/08/01 08:24:28;;;;;;;3.17;2.40;;;;;;;;;;5074007;28;20695;-69
2022/08/01 08:26:55;;;;;;;3.00;2.70;;;;;;;;;;5074347;28;20645;-69
2022/08/01 08:29:22;;;;;;;3.23;2.60;;;;;;;;;;5074125;28;20165;-69
2022/08/01 08:31:48;;;;;;;2.83;2.63;;;;;;;;;;5073910;28;20497;-69
2022/08/01 08:34:14;;;;;;;2.43;2.23;;;;;;;;;;5073706;28;20193;-69
2022/08/01 08:36:40;;;;;;;4.87;2.47;;;;;;;;;;5055646;28;20188;-69
2022/08/01 08:39:06;;;;;;;3.40;2.23;;;;;;;;;;5073837;28;20256;-69
2022/08/01 08:41:33;;;;;;;2.10;1.90;;;;;;;;;;5073579;28;20672;-68
2022/08/01 08:44:01;;;;;;;2.37;2.17;;;;;;;;;;5073330;28;20206;-69
2022/08/01 08:46:27;;;;;;;2.37;2.17;;;;;;;;;;5073584;28;20197;-68
2022/08/01 08:48:54;;;;;;;2.20;2.10;;;;;;;;;;5073562;28;20256;-68
2022/08/01 08:51:21;;;;;;;3.83;2.20;;;;;;;;;;5073330;28;20201;-69
2022/08/01 08:53:47;;;;;;;2.37;2.10;;;;;;;;;;5073790;28;20174;-68
2022/08/01 08:56:14;;;;;;;3.20;2.40;;;;;;;;;;5055242;28;20228;-69
2022/08/01 08:58:41;;;;;;;2.43;2.20;;;;;;;;;;5073792;28;20618;-69
2022/08/01 09:01:10;;;;;;;2.77;2.57;;;;;;;;;;5073388;28;20242;-69
2022/08/01 09:03:36;;;;;;;3.40;2.77;;;;;;;;;;5073351;28;20206;-68
2022/08/01 09:06:03;;;;;;;2.50;2.30;;;;;;;;;;5073253;28;20197;-67
2022/08/01 09:08:29;;;;;;;2.97;2.60;;;;;;;;;;5073686;28;20177;-68
2022/08/01 09:10:55;;;;;;;2.80;2.60;;;;;;;;;;5055357;28;20178;-68
2022/08/01 09:13:22;;;;;;;3.13;2.83;;;;;;;;;;5072911;28;20178;-68
2022/08/01 09:15:50;;;;;;;3.33;2.83;;;;;;;;;;5055182;28;20209;-68
2022/08/01 09:18:34;;;;;;;3.30;3.00;;;;;;;;;;5073388;28;20170;-68
2022/08/01 09:21:06;;;;;;;2.80;2.60;;;;;;;;;;5073054;28;20173;-68
2022/08/01 09:23:42;;;;;;;3.23;2.90;;;;;;;;;;5073053;28;20209;-68
2022/08/01 09:26:08;;;;;;;2.83;2.50;;;;;;;;;;5055213;28;20288;-68
2022/08/01 09:28:34;;;;;;;1.90;1.80;;;;;;;;;;5073135;28;20170;-68
2022/08/01 09:31:05;;;;;;;2.60;2.17;;;;;;;;;;5073068;28;20189;-68
2022/08/01 09:33:50;;;;;;;2.50;2.30;;;;;;;;;;5073214;28;20224;-68
2022/08/01 09:36:17;;;;;;;2.93;2.50;;;;;;;;;;5055782;28;20176;-68
2022/08/01 09:38:43;;;;;;;2.90;2.70;;;;;;;;;;5073010;28;20257;-68
2022/08/01 09:41:11;;;;;;;2.73;2.53;;;;;;;;;;5054953;28;20181;-68
2022/08/01 09:43:37;;;;;;;3.37;3.10;;;;;;;;;;5073041;28;20284;-68
2022/08/01 09:46:11;;;;;;;3.10;2.90;;;;;;;;;;5054807;28;20271;-68
2022/08/01 09:48:39;;;;;;;3.37;3.07;;;;;;;;;;5055063;28;20201;-67
2022/08/01 09:51:05;;;;;;;4.03;2.67;;;;;;;;;;5072869;28;20570;-68
2022/08/01 09:53:42;;;;;;;2.87;2.57;;;;;;;;;;5072901;28;20195;-68
2022/08/01 09:56:11;;;;;;;3.10;2.90;;;;;;;;;;5072809;28;20250;-68
2022/08/01 09:58:56;;;;;;;2.70;2.50;;;;;;;;;;5072770;28;20202;-69
2022/08/01 10:01:22;;;;;;;3.90;2.20;;;;;;;;;;5072837;28;20209;-68
2022/08/01 10:04:03;;;;;;;2.50;2.30;;;;;;;;;;5072732;28;20205;-68
2022/08/01 10:06:29;;;;;;;2.43;2.23;;;;;;;;;;5073018;28;20622;-65
2022/08/01 10:08:55;;;;;;;2.40;2.20;;;;;;;;;;5072723;28;20204;-66
2022/08/01 10:11:22;;;;;;;1.73;1.63;;;;;;;;;;5054666;28;20181;-67
2022/08/01 10:13:48;;;;;;;2.20;2.10;;;;;;;;;;5072608;28;20209;-67
2022/08/01 10:16:15;;;;;;;2.23;2.03;;;;;;;;;;5072469;28;20257;-68
2022/08/01 10:18:42;;;;;;;2.27;2.17;;;;;;;;;;5072676;28;20644;-68
2022/08/01 10:21:08;;;;;;;1.93;1.83;;;;;;;;;;5054739;28;20186;-68
2022/08/01 10:23:35;;;;;;;2.17;2.00;;;;;;;;;;5074437;28;20206;-68
2022/08/01 10:26:02;;;;;;;2.10;2.00;;;;;;;;;;5076454;28;20197;-68
2022/08/01 10:28:30;;;;;;;1.87;1.77;;;;;;;;;;5076575;28;20177;-68
2022/08/01 10:30:56;;;;;;;1.97;1.80;;;;;;;;;;5076338;28;20220;-68
2022/08/01 10:33:23;;;;;;;1.70;1.60;;;;;;;;;;5076472;28;20244;-68
2022/08/01 10:35:49;;;;;;;2.33;1.77;;;;;;;;;;5076396;28;20204;-68
2022/08/01 10:38:15;;;;;;;3.17;1.60;;;;;;;;;;5058058;28;20534;-68
2022/08/01 10:40:44;;;;;;;1.90;1.80;;;;;;;;;;5076405;28;20188;-68
2022/08/01 10:43:11;;;;;;;2.10;1.90;;;;;;;;;;5057841;28;20266;-68
2022/08/01 10:45:37;;;;;;;1.40;1.30;;;;;;;;;;5076082;28;20237;-68
2022/08/01 10:48:06;;;;;;;1.80;1.40;;;;;;;;;;5076070;28;20180;-69
2022/08/01 10:50:32;;;;;;;1.47;1.37;;;;;;;;;;5099776;22;20229;-70
2022/08/01 10:53:06;;;;;;;1.60;1.50;;;;;;;;;;5058955;28;20173;-70
2022/08/01 10:55:45;;;;;;;2.27;1.30;;;;;;;;;;5075961;28;20261;-70
2022/08/01 10:58:11;;;;;;;2.53;1.40;;;;;;;;;;5076647;28;20166;-70
2022/08/01 11:00:37;;;;;;;1.40;1.30;;;;;;;;;;5057996;28;20212;-69
2022/08/01 11:03:04;;;;;;;1.23;1.13;;;;;;;;;;5057799;28;20670;-70
2022/08/01 11:05:34;;;;;;;1.10;1.10;;;;;;;;;;5075885;28;20177;-70
2022/08/01 11:08:09;;;;;;;1.60;1.50;;;;;;;;;;5076089;28;20256;-70
2022/08/01 11:10:39;;;;;;;1.60;1.30;;;;;;;;;;5057684;28;20283;-70
2022/08/01 11:13:07;;;;;;;1.50;1.40;;;;;;;;;;5057728;28;20173;-69
2022/08/01 11:15:34;;;;;;;1.33;1.20;;;;;;;;;;5075922;28;20181;-70
2022/08/01 11:18:04;;;;;;;1.67;1.30;;;;;;;;;;5075678;28;20260;-70
2022/08/01 11:20:32;;;;;;;1.30;1.20;;;;;;;;;;5057747;28;20665;-70
2022/08/01 11:23:01;;;;;;;1.67;1.30;;;;;;;;;;5075649;28;20532;-70
2022/08/01 11:25:36;;;;;;;1.40;1.30;;;;;;;;;;5057696;28;20180;-73
2022/08/01 11:28:17;;;;;;;1.13;1.13;;;;;;;;;;5057479;28;20181;-70
2022/08/01 11:30:44;;;;;;;1.50;1.40;;;;;;;;;;5075581;28;20300;-70
2022/08/01 11:33:10;;;;;;;1.30;1.20;;;;;;;;;;5075662;28;20182;-70
2022/08/01 11:35:37;;;;;;;1.10;1.10;;;;;;;;;;5074687;28;20182;-69
2022/08/01 11:38:21;;;;;;;1.40;1.30;;;;;;;;;;5075254;28;20638;-69
2022/08/01 11:40:47;;;;;;;1.40;1.33;;;;;;;;;;5075284;28;20208;-69
2022/08/01 11:43:13;;;;;;;3.23;1.33;;;;;;;;;;5075121;28;20197;-69
2022/08/01 11:45:56;;;;;;;1.40;1.30;;;;;;;;;;5075230;28;20262;-69
2022/08/01 11:48:23;;;;;;;1.53;1.37;;;;;;;;;;5075531;28;20235;-69
2022/08/01 11:50:52;;;;;;;1.40;1.30;;;;;;;;;;5074894;28;20209;-69
2022/08/01 11:53:19;;;;;;;1.60;1.50;;;;;;;;;;5075236;28;20178;-70
2022/08/01 11:55:52;;;;;;;1.70;1.60;;;;;;;;;;5057093;28;20185;-68
2022/08/01 11:58:22;;;;;;;1.70;1.60;;;;;;;;;;5075116;28;20548;-68
2022/08/01 12:00:52;;;;;;;2.43;1.77;;;;;;;;;;5074877;28;20552;-69
2022/08/01 12:03:23;;;;;;;2.00;1.90;;;;;;;;;;5074701;28;20198;-69
2022/08/01 12:05:49;;;;;;;1.70;1.60;;;;;;;;;;5057062;28;20189;-69
2022/08/01 12:08:24;;;;;;;1.60;1.50;;;;;;;;;;5074793;28;20638;-69
2022/08/01 12:10:50;;;;;;;1.63;1.53;;;;;;;;;;5074891;28;20539;-69
2022/08/01 12:13:17;;;;;;;1.77;1.67;;;;;;;;;;5074710;28;20269;-70
2022/08/01 12:15:44;;;;;;;2.00;1.90;;;;;;;;;;5056617;28;20673;-69
2022/08/01 12:18:10;;;;;;;5.13;1.83;;;;;;;;;;5056751;28;20185;-68
2022/08/01 12:20:37;;;;;;;1.70;1.60;;;;;;;;;;5056625;28;20259;-70
2022/08/01 12:23:05;;;;;;;2.50;1.50;;;;;;;;;;5056295;28;20206;-70
2022/08/01 12:25:31;;;;;;;1.50;1.40;;;;;;;;;;5074331;28;20253;-68
2022/08/01 12:28:02;;;;;;;1.10;1.10;;;;;;;;;;5074512;28;20177;-70
2022/08/01 12:30:30;;;;;;;1.40;1.30;;;;;;;;;;5074363;28;20229;-69
2022/08/01 12:32:57;;;;;;;2.73;1.50;;;;;;;;;;5074612;28;20694;-69
2022/08/01 12:35:26;;;;;;;1.37;1.30;;;;;;;;;;5056233;28;20190;-70
2022/08/01 12:37:53;;;;;;;1.50;1.40;;;;;;;;;;5056290;28;20227;-69
2022/08/01 12:40:24;;;;;;;1.20;1.20;;;;;;;;;;5056353;28;20209;-70
2022/08/01 12:42:51;;;;;;;1.73;1.40;;;;;;;;;;5056301;28;20189;-70
2022/08/01 12:45:19;;;;;;;1.87;1.50;;;;;;;;;;5074167;28;20185;-69
2022/08/01 12:47:46;;;;;;;1.70;1.60;;;;;;;;;;5055444;28;20181;-68
2022/08/01 12:50:13;;;;;;;1.70;1.60;;;;;;;;;;5055809;28;20188;-70
2022/08/01 12:52:39;;;;;;;1.50;1.40;;;;;;;;;;5074165;28;20184;-70
2022/08/01 12:55:08;;;;;;;1.47;1.37;;;;;;;;;;5073954;28;20213;-70
2022/08/01 12:57:34;;;;;;;2.13;1.53;;;;;;;;;;5073890;28;20178;-70
2022/08/01 13:00:07;;;;;;;1.50;1.40;;;;;;;;;;5073901;28;20178;-68
2022/08/01 13:02:34;;;;;;;2.03;1.93;;;;;;;;;;5055730;28;20204;-69
2022/08/01 13:05:00;;;;;;;1.60;1.50;;;;;;;;;;5055754;28;20678;-68
2022/08/01 13:07:56;;;;;;;1.50;1.40;;;;;;;;;;5055538;28;20181;-69
2022/08/01 13:10:26;;;;;;;2.27;1.70;;;;;;;;;;5064883;28;20209;-68
2022/08/01 13:12:53;;;;;;;1.70;1.60;;;;;;;;;;5073887;28;20591;-69
2022/08/01 13:15:24;;;;;;;1.63;1.53;;;;;;;;;;5073320;28;20181;-69
2022/08/01 13:17:50;;;;;;;2.07;1.63;;;;;;;;;;5073679;28;20169;-68
2022/08/01 13:20:27;;;;;;;3.23;1.63;;;;;;;;;;5073445;28;20243;-70
2022/08/01 13:22:53;;;;;;;1.60;1.50;;;;;;;;;;5073570;28;20177;-70
2022/08/01 13:25:19;;;;;;;2.17;1.90;;;;;;;;;;5073447;28;20200;-69
2022/08/01 13:27:45;;;;;;;2.07;1.87;;;;;;;;;;5055453;28;20185;-69
2022/08/01 13:30:16;;;;;;;2.37;2.17;;;;;;;;;;5073116;28;20231;-69
2022/08/01 13:32:44;;;;;;;2.30;1.80;;;;;;;;;;5055260;28;20180;-69
2022/08/01 13:35:14;;;;;;;2.03;1.77;;;;;;;;;;5055346;28;20174;-69
2022/08/01 13:37:41;;;;;;;2.23;2.00;;;;;;;;;;5055255;28;20182;-69
2022/08/01 13:40:08;;;;;;;1.97;1.83;;;;;;;;;;5073183;28;20725;-70
2022/08/01 13:42:34;;;;;;;2.50;1.60;;;;;;;;;;5073070;28;20178;-69
2022/08/01 13:45:00;;;;;;;1.77;1.57;;;;;;;;;;5072772;28;20609;-69
2022/08/01 13:47:26;;;;;;;2.03;1.80;;;;;;;;;;5073106;28;20180;-70
2022/08/01 13:49:52;;;;;;;3.20;1.93;;;;;;;;;;5073341;28;20544;-70
2022/08/01 13:52:18;;;;;;;2.77;2.07;;;;;;;;;;5054819;28;20213;-69
2022/08/01 13:54:44;;;;;;;3.67;2.00;;;;;;;;;;5055001;28;20672;-70
2022/08/01 13:57:10;;;;;;;2.37;2.00;;;;;;;;;;5073255;28;20636;-69
2022/08/01 13:59:36;;;;;;;2.97;2.20;;;;;;;;;;5076559;28;20642;-69
2022/08/01 14:02:02;;;;;;;1.67;1.57;;;;;;;;;;5076891;28;20204;-69
2022/08/01 14:04:28;;;;;;;2.63;1.63;;;;;;;;;;5076920;28;20197;-69
2022/08/01 14:06:54;;;;;;;2.60;1.80;;;;;;;;;;5076884;28;20184;-70
2022/08/01 14:09:22;;;;;;;1.90;1.80;;;;;;;;;;5076865;28;20253;-69
2022/08/01 14:11:49;;;;;;;1.97;1.80;;;;;;;;;;5077171;28;20610;-69
2022/08/01 14:14:14;;;;;;;2.97;2.30;;;;;;;;;;5058981;28;20704;-69
2022/08/01 14:16:40;;;;;;;2.70;1.60;;;;;;;;;;5076723;28;20181;-70
2022/08/01 14:19:06;;;;;;;1.90;1.80;;;;;;;;;;5058703;28;20186;-70
2022/08/01 14:21:32;;;;;;;1.90;1.70;;;;;;;;;;5058834;28;20201;-70
2022/08/01 14:23:58;;;;;;;3.20;1.90;;;;;;;;;;5076819;28;20715;-70
2022/08/01 14:26:24;;;;;;;2.53;1.80;;;;;;;;;;5076605;28;20178;-69
2022/08/01 14:28:50;;;;;;;2.00;1.77;;;;;;;;;;5076996;28;20173;-69
2022/08/01 14:31:16;;;;;;;1.77;1.67;;;;;;;;;;5076219;28;20198;-69
2022/08/01 14:33:42;;;;;;;2.43;1.80;;;;;;;;;;5076928;28;20655;-69